Latest Weather Observations for PORTABLE RFSNSW01

IDN60801

Issued at 8:13 pm EDT Tuesday 26 January 2021 (issued every 10 minutes, with the page automatically refreshed every 10 minutes)

About weather observations | Map of weather stations | Latest weather observations for NSW | Other Formats
Station Details ID: 250043 Name: PORTABLE RFSNSW01 Lat: -33.59 Lon: 151.01 Height: 169.0 m

Portable automatic weather stations (PAWS) are operated by other organisations, such as Fire and Emergency Services, and are included here by agreement. Portable stations may be deployed to a location for a short period and their location may be subject to change without notice. Wind observations from these stations are provided from heights of either three (3) or ten (10) metres above ground level (AGL).

Data from the previous 72 hours. | See also: Recent months for locations in New South Wales
Date/Time
EDT
Temp
°C
App
Temp
°C
Dew
Point
°C
Rel
Hum
%
Delta-T
°C
Wind Press
QNH
hPa
Press
MSL
hPa
Rain since
9am
mm
Dir  Spd
km/h
Gust
km/h
Spd
kts
Gust
kts
26/08:00pm 30.3 31.0 17.9 47 8.0 ENE 11 13 6 7 - - 0.0
26/07:50pm 30.5 31.2 18.0 47 8.1 E 11 13 6 7 - - 0.0
26/07:40pm 30.8 32.4 18.2 47 8.2 E 7 13 4 7 - - 0.0
26/07:30pm 31.1 32.7 18.2 46 8.4 E 7 11 4 6 - - 0.0
26/07:20pm 31.5 32.5 17.8 44 8.8 E 9 13 5 7 - - 0.0
26/07:10pm 31.9 33.0 17.9 43 9.0 E 9 11 5 6 - - 0.0
26/07:00pm 32.4 33.5 18.0 42 9.3 E 9 13 5 7 - - 0.0
26/06:50pm 33.3 34.4 17.9 40 10.0 E 9 11 5 6 - - 0.0
26/06:40pm 34.5 35.7 17.4 36 11.1 ENE 7 11 4 6 - - 0.0
26/06:30pm 35.6 35.9 13.3 26 13.7 WNW 4 6 2 3 - - 0.0
26/06:20pm 35.8 35.3 12.7 25 14.0 WSW 7 9 4 5 - - 0.0
26/06:10pm 36.4 36.1 13.2 25 14.2 WSW 7 11 4 6 - - 0.0
26/06:00pm 37.0 36.3 11.9 22 15.2 WNW 7 11 4 6 - - 0.0
26/05:50pm 37.3 36.8 12.5 22 15.1 NW 7 13 4 7 - - 0.0
26/05:40pm 37.2 36.7 12.5 22 15.0 W 7 11 4 6 - - 0.0
26/05:30pm 37.7 36.1 11.6 21 15.7 WNW 11 19 6 10 - - 0.0
26/05:20pm 38.6 37.2 12.2 20 16.1 W 11 19 6 10 - - 0.0
26/05:10pm 37.8 36.3 10.7 19 16.1 WNW 9 11 5 6 - - 0.0
26/05:00pm 38.8 37.1 12.5 21 16.1 W 13 20 7 11 - - 0.0
26/04:50pm 38.8 37.1 12.3 20 16.2 WNW 13 19 7 10 - - 0.0
26/04:40pm 38.8 36.9 10.6 18 16.8 NW 11 19 6 10 - - 0.0
26/04:30pm 38.4 37.3 11.9 20 16.1 NW 9 13 5 7 - - 0.0
26/04:20pm 37.9 36.8 13.2 23 15.2 NW 11 15 6 8 - - 0.0
26/04:10pm 38.5 36.9 11.7 20 16.2 WNW 11 19 6 10 - - 0.0
26/04:00pm 37.2 35.9 11.1 20 15.6 N 9 11 5 6 - - 0.0
26/03:50pm 37.3 36.8 12.7 23 15.0 W 7 15 4 8 - - 0.0
26/03:40pm 38.4 37.1 12.4 21 15.9 W 11 15 6 8 - - 0.0
26/03:30pm 38.8 37.1 12.5 21 16.1 NNW 13 22 7 12 - - 0.0
26/03:20pm 38.4 36.5 11.7 20 16.2 NW 13 20 7 11 - - 0.0
26/03:10pm 38.4 36.1 11.9 20 16.1 NNW 15 20 8 11 - - 0.0
26/03:00pm 38.6 36.6 11.4 19 16.4 NW 13 22 7 12 - - 0.0
26/02:50pm 38.1 36.4 11.2 20 16.1 NNW 11 15 6 8 - - 0.0
26/02:40pm 37.7 36.3 13.5 23 15.0 W 13 19 7 10 - - 0.0
26/02:30pm 38.3 36.3 11.6 20 16.1 WNW 13 17 7 9 - - 0.0
26/02:20pm 38.0 36.8 12.8 22 15.5 NW 11 13 6 7 - - 0.0
26/02:10pm 37.8 35.9 11.9 21 15.7 WNW 13 19 7 10 - - 0.0
26/02:00pm 38.0 36.1 11.8 20 15.9 WNW 13 17 7 9 - - 0.0
26/01:50pm 37.3 35.2 11.2 20 15.6 WNW 13 22 7 12 - - 0.0
26/01:40pm 37.8 36.2 12.8 22 15.3 NW 13 15 7 8 - - 0.0
26/01:30pm 37.4 35.2 12.0 21 15.4 NW 15 22 8 12 - - 0.0
26/01:20pm 37.1 34.7 11.5 21 15.4 NNW 15 22 8 12 - - 0.0
26/01:10pm 36.9 35.0 11.7 22 15.2 NW 13 17 7 9 - - 0.0
26/01:00pm 36.6 34.2 11.5 22 15.0 NW 15 20 8 11 - - 0.0
26/12:50pm 36.9 35.2 12.3 22 14.9 NW 13 20 7 11 - - 0.0
26/12:40pm 36.3 33.8 12.4 23 14.5 NW 17 19 9 10 - - 0.0
26/12:30pm 35.9 33.7 14.4 27 13.4 WNW 19 22 10 12 - - 0.0
26/12:20pm 35.8 33.2 11.9 23 14.4 NW 17 24 9 13 - - 0.0
26/12:10pm 35.8 34.6 14.0 27 13.5 WNW 13 19 7 10 - - 0.0
26/12:00pm 35.3 34.5 15.1 30 12.7 NW 13 19 7 10 - - 0.0
26/11:50am 35.2 33.3 14.2 28 13.0 WNW 17 20 9 11 - - 0.0
26/11:40am 35.1 33.7 14.5 29 12.8 WNW 15 20 8 11 - - 0.0
26/11:30am 34.8 33.1 13.6 28 13.0 NW 15 20 8 11 - - 0.0
26/11:20am 34.3 31.7 13.2 28 12.8 NW 19 22 10 12 - - 0.0
26/11:10am 34.3 32.3 13.8 29 12.6 NW 17 24 9 13 - - 0.0
26/11:00am 34.1 32.1 13.9 29 12.4 NNW 17 26 9 14 - - 0.0
26/10:50am 34.0 32.0 13.8 29 12.4 NNW 17 22 9 12 - - 0.0
26/10:40am 33.7 32.2 14.2 30 12.0 NW 15 20 8 11 - - 0.0
26/10:30am 33.4 31.3 13.7 30 12.0 WNW 17 20 9 11 - - 0.0
26/10:20am 32.8 31.1 14.7 33 11.2 NW 17 19 9 10 - - 0.0
26/10:10am 32.5 31.1 14.4 33 11.1 NW 15 22 8 12 - - 0.0
26/10:00am 32.1 31.0 14.4 34 10.9 NW 13 19 7 10 - - 0.0
26/09:50am 31.8 31.7 16.1 38 9.9 NW 11 19 6 10 - - 0.0
26/09:40am 31.6 31.4 15.6 38 10.0 NW 11 15 6 8 - - 0.0
26/09:30am 31.0 30.9 16.1 40 9.4 NNW 11 15 6 8 - - 0.0
26/09:20am 30.5 30.4 16.1 41 9.0 NW 11 13 6 7 - - 0.0
26/09:10am 30.2 30.1 16.0 42 8.9 NW 11 17 6 9 - - 0.0
26/09:00am 29.8 30.2 16.3 44 8.5 NW 9 15 5 8 - - 0.0
26/08:50am 29.5 29.3 15.6 43 8.6 NW 11 15 6 8 - - 0.0
26/08:40am 29.2 29.0 15.7 44 8.4 NW 11 13 6 7 - - 0.0
26/08:30am 28.8 28.6 15.6 44 8.2 NW 11 15 6 8 - - 0.0
26/08:20am 28.5 27.7 15.1 44 8.2 NNW 13 19 7 10 - - 0.0
26/08:10am 28.3 27.8 15.0 44 8.1 NNW 11 17 6 9 - - 0.0
26/08:00am 28.1 27.7 15.2 45 7.9 NNW 11 15 6 8 - - 0.0
26/07:50am 27.8 27.4 15.1 46 7.8 NNW 11 13 6 7 - - 0.0
26/07:40am 27.4 27.0 15.1 47 7.5 NNW 11 15 6 8 - - 0.0
26/07:30am 27.2 26.5 15.3 48 7.3 NNW 13 17 7 9 - - 0.0
26/07:20am 27.1 26.3 15.2 48 7.3 NNW 13 17 7 9 - - 0.0
26/07:10am 26.9 26.4 14.8 47 7.3 NNW 11 15 6 8 - - 0.0
26/07:00am 26.6 26.0 14.7 48 7.2 NNW 11 13 6 7 - - 0.0
26/06:50am 26.1 25.6 15.0 50 6.7 NNW 11 13 6 7 - - 0.0
26/06:40am 25.2 25.0 14.6 51 6.4 NNW 9 11 5 6 - - 0.0
26/06:30am 24.8 25.1 16.1 58 5.3 NNW 9 11 5 6 - - 0.0
26/06:20am 25.1 25.3 15.8 56 5.7 NNW 9 15 5 8 - - 0.0
26/06:10am 24.8 24.8 15.3 55 5.8 NNW 9 13 5 7 - - 0.0
26/06:00am 24.7 25.0 16.1 58 5.3 NNW 9 13 5 7 - - 0.0
26/05:50am 23.6 23.8 15.8 61 4.7 NNW 9 11 5 6 - - 0.0
26/05:40am 22.4 23.2 16.4 69 3.7 NNW 7 13 4 7 - - 0.0
26/05:30am 21.6 23.0 17.9 79 2.3 N 7 7 4 4 - - 0.0
26/05:20am 21.6 23.5 18.6 83 1.9 N 6 7 3 4 - - 0.0
26/05:10am 21.5 23.4 18.6 83 1.8 N 6 6 3 3 - - 0.0
26/05:00am 21.5 23.7 19.1 86 1.5 N 6 6 3 3 - - 0.0
26/04:50am 21.5 23.4 18.9 85 1.6 N 7 7 4 4 - - 0.0
26/04:40am 21.3 23.5 19.1 87 1.4 N 6 7 3 4 - - 0.0
26/04:30am 21.4 23.6 19.3 88 1.3 N 6 7 3 4 - - 0.0
26/04:20am 21.4 23.7 19.4 88 1.3 N 6 6 3 3 - - 0.0
26/04:10am 21.5 24.2 19.5 88 1.3 N 4 4 2 2 - - 0.0
26/04:00am 21.5 23.9 19.6 89 1.2 N 6 6 3 3 - - 0.0
26/03:50am 21.6 24.0 19.6 88 1.3 N 6 6 3 3 - - 0.0
26/03:40am 21.8 24.2 19.7 88 1.3 N 6 6 3 3 - - 0.0
26/03:30am 22.1 24.3 19.6 86 1.6 NNE 7 7 4 4 - - 0.0
26/03:20am 22.0 24.2 19.5 86 1.6 NNE 7 9 4 5 - - 0.0
26/03:10am 21.8 24.2 19.7 88 1.3 NNE 6 7 3 4 - - 0.0
26/03:00am 22.1 24.3 19.6 86 1.6 NNE 7 9 4 5 - - 0.0
26/02:50am 22.0 24.2 19.6 86 1.5 NNE 7 9 4 5 - - 0.0
26/02:40am 21.8 24.0 19.7 88 1.3 NE 7 9 4 5 - - 0.0
26/02:30am 21.8 24.1 19.8 88 1.3 NE 7 9 4 5 - - 0.0
26/02:20am 21.9 24.2 19.8 88 1.4 NE 7 9 4 5 - - 0.0
26/02:10am 21.9 24.2 19.8 88 1.4 NE 7 9 4 5 - - 0.0
26/02:00am 21.9 24.2 19.9 88 1.3 NE 7 7 4 4 - - 0.0
26/01:50am 22.0 24.4 20.0 88 1.3 NE 7 9 4 5 - - 0.0
26/01:40am 22.2 24.6 20.0 87 1.4 ENE 7 9 4 5 - - 0.0
26/01:30am 22.2 24.2 20.0 87 1.4 ENE 9 11 5 6 - - 0.0
26/01:20am 22.2 24.2 20.0 87 1.4 ENE 9 9 5 5 - - 0.0
26/01:10am 22.2 24.2 20.0 87 1.4 ENE 9 11 5 6 - - 0.0
26/01:00am 22.1 24.1 20.0 88 1.4 ENE 9 11 5 6 - - 0.0
26/12:50am 22.1 24.5 20.0 88 1.4 ENE 7 9 4 5 - - 0.0
26/12:40am 22.2 24.6 20.0 87 1.4 ENE 7 11 4 6 - - 0.0
26/12:30am 22.1 24.5 20.1 88 1.3 ENE 7 7 4 4 - - 0.0
26/12:20am 22.2 24.6 20.1 88 1.4 ENE 7 9 4 5 - - 0.0
26/12:10am 22.1 24.5 20.0 88 1.4 ENE 7 9 4 5 - - 0.0
26/12:00am 22.2 24.8 20.0 87 1.4 E 6 7 3 4 - - 0.0
 
Date/Time
EDT
Temp
°C
App
Temp
°C
Dew
Point
°C
Rel
Hum
%
Delta-T
°C
Wind Press
QNH
hPa
Press
MSL
hPa
Rain since
9am
mm
Dir  Spd
km/h
Gust
km/h
Spd
kts
Gust
kts
25/11:50pm 22.2 24.8 20.0 87 1.4 E 6 6 3 3 - - 0.0
25/11:40pm 22.4 25.4 20.0 86 1.6 E 4 4 2 2 - - 0.0
25/11:30pm 22.5 25.5 20.0 86 1.6 E 4 6 2 3 - - 0.0
25/11:20pm 22.5 25.0 19.9 85 1.7 E 6 6 3 3 - - 0.0
25/11:10pm 22.6 25.5 19.8 84 1.8 ESE 4 6 2 3 - - 0.0
25/11:00pm 22.7 26.0 20.0 85 1.7 SSE 2 4 1 2 - - 0.0
25/10:50pm 23.1 26.4 19.9 82 2.1 E 2 2 1 1 - - 0.0
25/10:40pm 23.4 26.3 19.9 81 2.3 NE 4 6 2 3 - - 0.0
25/10:30pm 23.7 26.9 19.8 79 2.5 N 2 6 1 3 - - 0.0
25/10:20pm 23.9 26.3 19.6 77 2.8 NE 6 6 3 3 - - 0.0
25/10:10pm 24.1 26.8 19.5 75 3.0 NE 4 6 2 3 - - 0.0
25/10:00pm 24.3 26.5 19.5 74 3.1 NE 7 13 4 7 - - 0.0
25/09:50pm 24.5 25.4 19.3 73 3.4 ENE 13 15 7 8 - - 0.0
25/09:40pm 24.7 25.9 19.1 71 3.6 ENE 11 15 6 8 - - 0.0
25/09:30pm 24.8 25.5 18.8 69 3.8 ENE 13 15 7 8 - - 0.0
25/09:20pm 25.0 25.9 18.5 67 4.1 ENE 11 13 6 7 - - 0.0
25/09:10pm 25.1 25.9 18.2 65 4.4 ENE 11 13 6 7 - - 0.0
25/09:00pm 25.2 25.6 18.1 64 4.5 ENE 13 15 7 8 - - 0.0
25/08:50pm 25.3 25.6 17.9 63 4.7 ENE 13 17 7 9 - - 0.0
25/08:40pm 25.5 25.8 17.9 63 4.8 ENE 13 17 7 9 - - 0.0
25/08:30pm 25.6 25.9 17.8 62 4.9 ENE 13 15 7 8 - - 0.0
25/08:20pm 25.8 25.6 17.6 60 5.2 ENE 15 17 8 9 - - 0.0
25/08:10pm 26.1 25.9 17.6 59 5.4 ENE 15 19 8 10 - - 0.0
25/08:00pm 26.3 26.4 17.5 58 5.6 ENE 13 17 7 9 - - 0.0
25/07:50pm 26.8 26.6 17.6 57 5.8 ENE 15 17 8 9 - - 0.0
25/07:40pm 27.3 27.0 17.4 54 6.3 ENE 15 20 8 11 - - 0.0
25/07:30pm 27.7 27.3 17.1 52 6.7 ENE 15 17 8 9 - - 0.0
25/07:20pm 28.1 27.7 17.1 51 6.9 ENE 15 19 8 10 - - 0.0
25/07:10pm 28.5 28.0 16.9 49 7.3 ENE 15 20 8 11 - - 0.0
25/07:00pm 28.8 27.9 16.8 48 7.6 ENE 17 20 9 11 - - 0.0
25/06:50pm 29.2 28.3 16.9 47 7.8 ENE 17 19 9 10 - - 0.0
25/06:40pm 29.6 29.6 17.1 47 7.9 ENE 13 19 7 10 - - 0.0
25/06:30pm 29.7 29.0 17.3 47 7.9 ENE 17 20 9 11 - - 0.0
25/06:20pm 30.1 29.3 17.2 46 8.2 ENE 17 20 9 11 - - 0.0
25/06:10pm 30.7 30.9 17.7 45 8.3 ENE 13 19 7 10 - - 0.0
25/06:00pm 31.4 31.6 17.6 43 8.9 ENE 13 17 7 9 - - 0.0
25/05:50pm 31.7 32.1 17.3 42 9.2 ENE 11 19 6 10 - - 0.0
25/05:40pm 32.0 32.1 16.5 39 9.8 ENE 11 17 6 9 - - 0.0
25/05:30pm 32.0 31.7 18.2 43 9.0 E 17 19 9 10 - - 0.0
25/05:20pm 32.3 32.6 17.8 42 9.4 ENE 13 17 7 9 - - 0.0
25/05:10pm 32.2 31.0 17.0 40 9.7 E 19 20 10 11 - - 0.0
25/05:00pm 32.7 32.4 17.4 40 9.8 E 15 17 8 9 - - 0.0
25/04:50pm 32.9 32.8 17.9 41 9.7 E 15 19 8 10 - - 0.0
25/04:40pm 33.5 33.8 17.8 39 10.2 E 13 17 7 9 - - 0.0
25/04:30pm 33.5 33.5 18.0 39 10.1 E 15 19 8 10 - - 0.0
25/04:20pm 33.8 33.1 16.3 35 11.1 E 15 19 8 10 - - 0.0
25/04:10pm 33.9 32.1 13.2 28 12.6 E 15 20 8 11 - - 0.0
25/04:00pm 33.8 31.9 15.1 32 11.7 E 19 22 10 12 - - 0.0
25/03:50pm 34.3 32.3 12.6 27 13.1 E 15 19 8 10 - - 0.0
25/03:40pm 34.8 33.1 13.5 27 13.1 E 15 20 8 11 - - 0.0
25/03:30pm 35.1 33.9 14.1 28 13.0 E 13 17 7 9 - - 0.0
25/03:20pm 35.5 34.6 14.9 29 12.9 E 13 17 7 9 - - 0.0
25/03:10pm 35.9 35.0 13.6 26 13.7 ENE 11 15 6 8 - - 0.0
25/03:00pm 36.5 35.7 12.9 24 14.4 NE 9 15 5 8 - - 0.0
25/02:50pm 36.2 34.9 12.4 24 14.4 ENE 11 13 6 7 - - 0.0
25/02:40pm 35.9 34.1 12.0 23 14.4 E 13 17 7 9 - - 0.0
25/02:30pm 36.1 34.9 11.6 22 14.7 NE 9 13 5 7 - - 0.0
25/02:20pm 35.9 34.0 11.9 23 14.4 E 13 17 7 9 - - 0.0
25/02:10pm 35.8 35.3 15.0 29 13.1 ESE 11 13 6 7 - - 0.0
25/02:00pm 35.7 35.3 15.3 29 12.9 E 11 15 6 8 - - 0.0
25/01:50pm 36.0 35.3 13.2 25 14.0 ESE 9 13 5 7 - - 0.0
25/01:40pm 36.4 36.9 14.0 26 13.9 WNW 4 6 2 3 - - 0.0
25/01:30pm 36.0 35.7 13.2 25 14.0 NE 7 11 4 6 - - 0.0
25/01:20pm 35.7 36.0 14.5 28 13.2 ENE 6 13 3 7 - - 0.0
25/01:10pm 35.9 36.4 14.0 27 13.6 ESE 4 7 2 4 - - 0.0
25/01:00pm 35.6 35.8 13.1 25 13.7 N 4 7 2 4 - - 0.0
25/12:50pm 35.5 35.7 14.3 28 13.2 N 6 9 3 5 - - 0.0
25/12:40pm 35.0 34.8 13.0 26 13.4 SE 6 7 3 4 - - 0.0
25/12:30pm 34.9 34.8 13.2 27 13.2 SE 6 9 3 5 - - 0.0
25/12:20pm 34.6 35.0 14.7 30 12.4 NE 6 9 3 5 - - 0.0
25/12:10pm 34.9 36.3 16.3 33 11.9 N 4 7 2 4 - - 0.0
25/12:00pm 34.2 35.2 15.4 32 11.8 SW 4 6 2 3 - - 0.0
25/11:50am 33.7 34.9 16.9 36 10.8 ENE 6 7 3 4 - - 0.0
25/11:40am 33.5 35.1 16.9 37 10.6 E 4 7 2 4 - - 0.0
25/11:30am 32.7 34.3 16.8 38 10.1 NW 4 7 2 4 - - 0.0
25/11:20am 32.3 33.4 16.6 39 10.0 WNW 6 7 3 4 - - 0.0
25/11:10am 31.8 33.1 17.0 41 9.4 W 6 7 3 4 - - 0.0
25/11:00am 31.5 33.4 18.5 46 8.5 WSW 6 7 3 4 - - 0.0
25/10:50am 31.4 33.2 18.3 45 8.5 WNW 6 7 3 4 - - 0.0
25/10:40am 31.4 33.2 17.5 43 8.9 W 4 7 2 4 - - 0.0
25/10:30am 31.0 32.6 16.9 42 9.0 WNW 4 7 2 4 - - 0.0
25/10:20am 31.0 32.9 17.7 45 8.5 NW 4 7 2 4 - - 0.0
25/10:10am 30.2 31.7 16.7 44 8.5 WNW 4 6 2 3 - - 0.0
25/10:00am 30.0 32.3 17.8 48 7.8 SE 2 4 1 2 - - 0.0
25/09:50am 29.2 31.7 18.2 51 7.1 SW 2 4 1 2 - - 0.0
25/09:40am 28.5 30.2 17.2 50 7.2 NNW 4 6 2 3 - - 0.0
25/09:30am 28.1 30.3 18.3 55 6.3 SSW 4 4 2 2 - - 0.0
25/09:20am 27.5 29.5 17.9 55 6.1 NE 4 6 2 3 - - 0.0
25/09:10am 27.0 29.1 18.1 58 5.7 ENE 4 4 2 2 - - 0.0
25/09:00am 25.9 27.9 17.8 61 5.1 NNE 4 6 2 3 - - 0.0
25/08:50am 25.9 27.5 17.8 61 5.1 NNE 6 7 3 4 - - 0.0
25/08:40am 25.2 26.7 17.6 62 4.8 NNE 6 7 3 4 - - 0.0
25/08:30am 24.6 26.2 17.9 66 4.2 NE 6 9 3 5 - - 0.0
25/08:20am 24.4 25.9 18.1 68 4.0 NE 7 9 4 5 - - 0.0
25/08:10am 24.2 26.5 18.5 70 3.6 ENE 4 6 2 3 - - 0.0
25/08:00am 23.4 25.2 18.4 73 3.2 ENE 6 9 3 5 - - 0.0
25/07:50am 22.9 24.7 18.4 76 2.8 ENE 6 7 3 4 - - 0.0
25/07:40am 22.7 24.5 18.2 76 2.8 ENE 6 9 3 5 - - 0.0
25/07:30am 22.3 23.9 18.2 77 2.6 ENE 7 9 4 5 - - 0.0
25/07:20am 21.9 23.4 18.0 78 2.4 ENE 7 9 4 5 - - 0.0
25/07:10am 21.4 22.5 18.0 81 2.1 ENE 9 11 5 6 - - 0.0
25/07:00am 21.0 22.0 17.8 82 2.0 ENE 9 9 5 5 - - 0.0
25/06:50am 20.7 22.2 17.6 82 1.9 ENE 6 7 3 4 - - 0.0
25/06:40am 20.6 21.8 17.3 81 2.0 ENE 7 9 4 5 - - 0.0
25/06:30am 20.6 21.9 17.2 81 2.1 ENE 6 7 3 4 - - 0.0
25/06:20am 20.7 21.8 17.1 80 2.2 ENE 7 9 4 5 - - 0.0
25/06:10am 20.8 22.1 17.0 79 2.3 NE 6 7 3 4 - - 0.0
25/06:00am 20.9 21.9 16.9 78 2.5 ENE 7 9 4 5 - - 0.0
25/05:50am 21.2 21.8 16.7 75 2.8 NE 9 9 5 5 - - 0.0
25/05:40am 21.3 21.8 16.6 74 2.9 NE 9 9 5 5 - - 0.0
25/05:30am 21.4 21.9 16.6 74 2.9 ENE 9 11 5 6 - - 0.0
25/05:20am 21.6 22.5 16.5 73 3.1 ENE 7 7 4 4 - - 0.0
25/05:10am 21.7 22.1 16.4 72 3.2 ENE 9 11 5 6 - - 0.0
25/05:00am 21.9 22.3 16.4 71 3.4 ENE 9 9 5 5 - - 0.0
25/04:50am 22.0 22.1 16.5 71 3.4 ENE 11 11 6 6 - - 0.0
25/04:40am 22.1 22.2 16.5 70 3.4 ENE 11 13 6 7 - - 0.0
25/04:30am 22.1 22.0 16.1 69 3.6 ENE 11 13 6 7 - - 0.0
25/04:20am 21.9 21.9 16.2 70 3.5 ENE 11 13 6 7 - - 0.0
25/04:10am 21.7 22.5 16.3 71 3.3 ENE 7 9 4 5 - - 0.0
25/04:00am 21.9 22.8 16.1 69 3.5 E 6 6 3 3 - - 0.0
25/03:50am 22.2 23.0 15.8 67 3.9 ENE 6 7 3 4 - - 0.0
25/03:40am 22.3 23.4 15.5 65 4.1 ENE 4 4 2 2 - - 0.0
25/03:30am 22.4 22.9 15.5 65 4.2 ENE 7 11 4 6 - - 0.0
25/03:20am 22.4 22.0 15.3 64 4.3 ENE 11 11 6 6 - - 0.0
25/03:10am 22.4 22.2 15.6 65 4.1 ENE 11 13 6 7 - - 0.0
25/03:00am 22.4 22.2 15.6 65 4.1 ENE 11 13 6 7 - - 0.0
25/02:50am 22.2 21.9 15.4 65 4.1 ENE 11 13 6 7 - - 0.0
25/02:40am 22.1 21.9 15.7 67 3.9 ENE 11 11 6 6 - - 0.0
25/02:30am 22.3 21.8 15.9 67 3.9 ENE 13 17 7 9 - - 0.0
25/02:20am 22.2 22.3 15.6 66 4.0 ENE 9 11 5 6 - - 0.0
25/02:10am 22.5 22.1 15.3 63 4.3 ENE 11 13 6 7 - - 0.0
25/02:00am 22.8 21.8 14.7 60 4.8 ENE 13 19 7 10 - - 0.0
25/01:50am 22.8 22.1 14.4 59 5.0 E 11 13 6 7 - - 0.0
25/01:40am 22.9 22.2 14.2 58 5.1 ENE 11 11 6 6 - - 0.0
25/01:30am 22.9 22.5 14.0 57 5.2 E 9 11 5 6 - - 0.0
25/01:20am 23.0 22.5 13.7 55 5.5 E 9 11 5 6 - - 0.0
25/01:10am 23.0 22.0 13.5 55 5.6 ENE 11 11 6 6 - - 0.0
25/01:00am 23.1 22.5 13.4 54 5.7 ENE 9 11 5 6 - - 0.0
25/12:50am 23.3 22.8 13.8 55 5.6 ENE 9 13 5 7 - - 0.0
25/12:40am 23.4 22.0 13.4 53 5.8 ENE 13 13 7 7 - - 0.0
25/12:30am 23.4 22.3 13.1 52 6.0 ENE 11 13 6 7 - - 0.0
25/12:20am 23.8 23.0 12.9 50 6.3 E 9 11 5 6 - - 0.0
25/12:10am 24.0 23.3 12.0 47 6.9 E 7 11 4 6 - - 0.0
25/12:00am 24.4 23.2 11.5 44 7.3 ENE 9 11 5 6 - - 0.0
 
Date/Time
EDT
Temp
°C
App
Temp
°C
Dew
Point
°C
Rel
Hum
%
Delta-T
°C
Wind Press
QNH
hPa
Press
MSL
hPa
Rain since
9am
mm
Dir  Spd
km/h
Gust
km/h
Spd
kts
Gust
kts
24/11:50pm 24.7 23.4 11.2 42 7.6 ENE 9 11 5 6 - - 0.0
24/11:40pm 24.9 23.6 10.1 39 8.2 ENE 7 11 4 6 - - 0.0
24/11:30pm 25.0 23.4 10.1 39 8.3 ENE 9 11 5 6 - - 0.0
24/11:20pm 25.2 23.6 10.1 38 8.4 NE 9 9 5 5 - - 0.0
24/11:10pm 25.4 24.3 10.5 39 8.4 NE 7 7 4 4 - - 0.0
24/11:00pm 25.4 24.0 9.4 36 8.8 NE 7 9 4 5 - - 0.0
24/10:50pm 25.6 24.3 10.0 37 8.7 NE 7 7 4 4 - - 0.0
24/10:40pm 25.5 24.7 11.0 40 8.2 NE 6 7 3 4 - - 0.0
24/10:30pm 25.6 24.7 9.4 36 8.9 NE 4 4 2 2 - - 0.0
24/10:20pm 26.0 25.8 10.4 37 8.8 NNE 2 4 1 2 - - 0.0
24/10:10pm 26.1 25.7 9.9 36 9.0 NNW 2 4 1 2 - - 0.0
24/10:00pm 26.3 25.5 9.6 35 9.3 NNE 4 4 2 2 - - 0.0
24/09:50pm 26.3 25.5 9.8 35 9.2 NW 4 6 2 3 - - 0.0
24/09:40pm 26.6 26.1 10.8 37 9.0 E 4 4 2 2 - - 0.0
24/09:30pm 26.8 25.8 10.2 35 9.3 ENE 6 7 3 4 - - 0.0
24/09:20pm 26.9 25.6 11.1 37 9.0 ENE 9 11 5 6 - - 0.0
24/09:10pm 27.0 25.4 11.4 37 9.0 ENE 11 13 6 7 - - 0.0
24/09:00pm 26.9 25.2 12.5 40 8.4 ENE 13 15 7 8 - - 0.0
24/08:50pm 27.0 26.1 13.7 44 7.9 ENE 11 15 6 8 - - 0.0
24/08:40pm 27.0 25.9 14.4 46 7.6 ENE 13 15 7 8 - - 0.0
24/08:30pm 27.0 26.5 14.8 47 7.4 ENE 11 15 6 8 - - 0.0
24/08:20pm 27.1 26.8 15.4 48 7.2 ENE 11 13 6 7 - - 0.0
24/08:10pm 27.4 27.1 15.5 48 7.3 ENE 11 13 6 7 - - 0.0
24/08:00pm 27.6 27.4 15.6 48 7.4 ENE 11 13 6 7 - - 0.0
24/07:50pm 27.9 28.7 15.8 47 7.5 ENE 6 7 3 4 - - 0.0
24/07:40pm 28.4 29.7 16.1 47 7.7 NE 4 6 2 3 - - 0.0
24/07:30pm 28.9 29.5 15.9 45 8.1 NE 7 9 4 5 - - 0.0
24/07:20pm 29.4 30.2 15.9 44 8.4 N 6 7 3 4 - - 0.0
24/07:10pm 29.8 30.4 15.9 43 8.7 N 7 9 4 5 - - 0.0
24/07:00pm 29.7 30.3 15.9 43 8.6 NNE 7 9 4 5 - - 0.0
24/06:50pm 29.8 30.4 15.8 42 8.7 WNW 7 13 4 7 - - 0.0
24/06:40pm 29.8 29.3 14.9 40 9.2 ENE 11 15 6 8 - - 0.0
24/06:30pm 30.1 29.7 15.2 40 9.2 ENE 11 15 6 8 - - 0.0
24/06:20pm 30.4 29.6 15.1 39 9.4 ENE 13 17 7 9 - - 0.0
24/06:10pm 30.7 30.4 15.4 39 9.5 ENE 11 13 6 7 - - 0.0
24/06:00pm 31.0 30.7 15.5 39 9.6 ENE 11 13 6 7 - - 0.0
24/05:50pm 31.4 31.5 15.5 38 9.9 ENE 9 13 5 7 - - 0.0
24/05:40pm 31.7 31.1 15.6 37 10.1 ENE 13 17 7 9 - - 0.0
24/05:30pm 32.0 31.7 15.4 36 10.4 ENE 11 15 6 8 - - 0.0
24/05:20pm 32.4 32.5 15.5 36 10.6 ENE 9 13 5 7 - - 0.0
24/05:10pm 32.7 32.5 15.8 36 10.6 ENE 11 13 6 7 - - 0.0
24/05:00pm 32.9 31.9 15.7 35 10.8 ENE 15 19 8 10 - - 0.0
24/04:50pm 33.7 34.0 17.0 37 10.7 ENE 11 13 6 7 - - 0.0
24/04:40pm 34.9 35.2 17.9 36 11.1 NE 13 17 7 9 - - 0.0
24/04:30pm 35.3 35.6 17.9 35 11.4 ENE 13 17 7 9 - - 0.0
24/04:20pm 35.3 35.1 17.5 34 11.6 ENE 15 19 8 10 - - 0.0
24/04:10pm 35.3 35.0 18.3 36 11.2 ENE 17 20 9 11 - - 0.0
24/04:00pm 35.5 35.6 18.4 36 11.2 ENE 15 20 8 11 - - 0.0
24/03:50pm 35.8 35.4 18.0 35 11.7 E 17 20 9 11 - - 0.0
24/03:40pm 36.3 36.5 18.6 35 11.7 ENE 15 19 8 10 - - 0.0
24/03:30pm 36.9 37.2 18.0 33 12.4 ENE 13 17 7 9 - - 0.0
24/03:20pm 36.9 36.3 16.7 30 13.0 ENE 15 17 8 9 - - 0.0
24/03:10pm 37.0 36.5 15.8 28 13.5 ENE 13 17 7 9 - - 0.0
24/03:00pm 37.3 36.7 15.6 27 13.8 ENE 13 17 7 9 - - 0.0
24/02:50pm 37.6 37.2 15.3 26 14.2 ENE 11 15 6 8 - - 0.0
24/02:40pm 37.9 38.8 16.7 28 13.7 NE 7 11 4 6 - - 0.0
24/02:30pm 38.3 38.4 15.6 26 14.5 N 9 13 5 7 - - 0.0
24/02:20pm 37.8 36.5 11.2 20 15.9 N 9 15 5 8 - - 0.0
24/02:10pm 37.8 37.1 13.3 23 15.1 NE 9 13 5 7 - - 0.0
24/02:00pm 38.0 37.4 12.2 21 15.7 NE 7 11 4 6 - - 0.0
24/01:50pm 37.9 37.4 12.5 22 15.5 NNW 7 11 4 6 - - 0.0
24/01:40pm 37.4 36.7 13.1 23 14.9 ENE 9 13 5 7 - - 0.0
24/01:30pm 37.4 36.6 12.9 23 15.0 N 9 11 5 6 - - 0.0
24/01:20pm 37.3 37.3 12.3 22 15.2 SSW 4 6 2 3 - - 0.0
24/01:10pm 37.0 35.3 9.7 19 16.0 NW 9 11 5 6 - - 0.0
24/01:00pm 36.6 36.9 15.0 27 13.6 NE 7 11 4 6 - - 0.0
24/12:50pm 36.8 37.4 15.2 27 13.7 W 6 11 3 6 - - 0.0
24/12:40pm 36.4 36.4 15.1 28 13.4 N 9 17 5 9 - - 0.0
24/12:30pm 35.9 37.1 17.3 33 12.1 NE 7 11 4 6 - - 0.0
24/12:20pm 35.9 36.8 16.6 31 12.4 N 7 9 4 5 - - 0.0
24/12:10pm 35.9 37.4 17.5 33 12.0 SSW 6 7 3 4 - - 0.0
24/12:00pm 35.7 37.5 17.5 34 11.8 W 4 9 2 5 - - 0.0
24/11:50am 35.7 37.5 18.4 36 11.4 NW 6 9 3 5 - - 0.0
24/11:40am 35.1 37.8 19.4 39 10.5 SSE 4 7 2 4 - - 0.0
24/11:30am 34.6 37.2 19.2 40 10.2 N 4 7 2 4 - - 0.0
24/11:20am 33.9 35.5 17.8 38 10.5 NNW 6 9 3 5 - - 0.0
24/11:10am 33.4 35.3 18.9 42 9.5 NW 7 9 4 5 - - 0.0
24/11:00am 33.3 35.1 18.3 41 9.8 NNW 6 9 3 5 - - 0.0
24/10:50am 32.6 33.9 18.4 43 9.3 NNW 9 11 5 6 - - 0.0
24/10:40am 32.2 33.4 18.2 43 9.1 N 9 11 5 6 - - 0.0
24/10:30am 31.7 33.8 19.3 47 8.2 NNW 7 11 4 6 - - 0.0
24/10:20am 31.5 33.6 19.4 48 8.0 NNW 7 13 4 7 - - 0.0
24/10:10am 31.0 32.9 19.0 48 7.9 N 7 11 4 6 - - 0.0
24/10:00am 30.4 32.7 19.8 53 7.0 N 7 11 4 6 - - 0.0
24/09:50am 30.1 32.7 20.0 54 6.7 N 6 9 3 5 - - 0.0
24/09:40am 29.2 32.4 21.2 62 5.4 NW 6 7 3 4 - - 0.0
24/09:30am 28.6 31.6 20.8 62 5.2 NW 6 9 3 5 - - 0.0
24/09:20am 28.1 31.1 20.9 65 4.8 NW 6 7 3 4 - - 0.0
24/09:10am 27.6 30.5 20.7 66 4.6 NW 6 7 3 4 - - 0.0
24/09:00am 26.8 30.0 21.3 72 3.7 NW 6 9 3 5 - - 0.0
24/08:50am 26.2 29.3 21.0 73 3.5 NW 6 6 3 3 - - 0.0
24/08:40am 25.5 28.7 21.3 77 2.8 NW 6 7 3 4 - - 0.0
24/08:30am 25.0 27.9 20.6 76 2.9 NW 6 6 3 3 - - 0.0
24/08:20am 24.6 27.6 20.8 79 2.5 NW 6 7 3 4 - - 0.0
24/08:10am 24.3 27.7 20.9 81 2.2 NNW 4 6 2 3 - - 0.0
24/08:00am 23.7 26.6 20.6 83 2.0 NW 6 7 3 4 - - 0.0
24/07:50am 23.1 26.3 20.6 86 1.6 NW 4 6 2 3 - - 0.0
24/07:40am 22.7 25.9 20.5 87 1.4 NW 4 6 2 3 - - 0.0
24/07:30am 22.3 25.1 20.5 89 1.2 NW 6 6 3 3 - - 0.0
24/07:20am 21.9 25.4 20.4 91 1.0 NW 2 4 1 2 - - 0.0
24/07:10am 21.3 24.4 20.2 93 0.7 N 4 6 2 3 - - 0.0
24/07:00am 20.8 23.7 19.9 95 0.6 N 4 6 2 3 - - 0.0
24/06:50am 20.4 23.6 19.7 96 0.4 N 2 4 1 2 - - 0.0
24/06:40am 20.0 22.7 19.4 96 0.4 N 4 4 2 2 - - 0.0
24/06:30am 20.1 23.2 19.5 96 0.4 N 2 2 1 1 - - 0.0
24/06:20am 19.7 22.7 19.2 97 0.3 W 2 4 1 2 - - 0.0
24/06:10am 19.8 22.8 19.2 96 0.4 W 2 4 1 2 - - 0.0
24/06:00am 19.8 22.8 19.2 96 0.4 NNE 2 4 1 2 - - 0.0
24/05:50am 20.1 22.8 19.4 96 0.4 NE 4 4 2 2 - - 0.0
24/05:40am 19.9 22.8 19.1 95 0.5 NE 2 2 1 1 - - 0.0
24/05:30am 20.3 23.0 19.5 95 0.5 NE 4 4 2 2 - - 0.0
24/05:20am 20.5 23.7 19.8 96 0.4 NNE 2 2 1 1 - - 0.0
24/05:10am 20.3 23.4 19.5 95 0.5 NNE 2 2 1 1 - - 0.0
24/05:00am 20.2 23.2 19.3 95 0.6 NNE 2 2 1 1 - - 0.0
24/04:50am 20.5 23.6 19.6 95 0.6 NNE 2 2 1 1 - - 0.0
24/04:40am 20.7 24.0 19.9 95 0.5 WNW 2 2 1 1 - - 0.0
24/04:30am 20.6 23.8 19.7 95 0.6 WSW 2 4 1 2 - - 0.0
24/04:20am 20.6 23.7 19.6 94 0.6 WNW 2 4 1 2 - - 0.0
24/04:10am 20.6 23.7 19.5 93 0.7 N 2 4 1 2 - - 0.0
24/04:00am 20.6 23.6 19.2 92 0.9 N 2 2 1 1 - - 0.0
24/03:50am 21.1 24.0 19.8 92 0.8 NNW 4 4 2 2 - - 0.0
24/03:40am 21.2 24.1 19.9 92 0.8 NNW 4 6 2 3 - - 0.0
24/03:30am 21.1 24.3 19.8 92 0.8 NW 2 4 1 2 - - 0.0
24/03:20am 20.9 23.9 19.3 90 1.0 N 2 2 1 1 - - 0.0
24/03:10am 21.4 24.5 19.4 88 1.3 NNW 2 2 1 1 - - 0.0
24/03:00am 21.7 24.8 19.6 88 1.3 NW 2 4 1 2 - - 0.0
24/02:50am 21.9 25.1 19.7 87 1.4 N 2 4 1 2 - - 0.0
24/02:40am 22.1 25.3 19.7 86 1.5 N 2 4 1 2 - - 0.0
24/02:30am 22.2 25.0 19.6 85 1.7 N 4 4 2 2 - - 0.0
24/02:20am 21.8 24.5 19.4 86 1.5 NNE 4 6 2 3 - - 0.0
24/02:10am 21.8 24.9 19.4 86 1.5 ENE 2 2 1 1 - - 0.0
24/02:00am 22.2 25.3 19.6 85 1.7 N 2 4 1 2 - - 0.0
24/01:50am 22.5 25.6 19.6 84 1.9 NNW 2 2 1 1 - - 0.0
24/01:40am 22.8 25.5 19.5 81 2.1 WNW 4 4 2 2 - - 0.0
24/01:30am 22.7 24.9 19.2 80 2.2 WNW 6 6 3 3 - - 0.0
24/01:20am 22.3 24.8 19.1 82 2.0 NNW 4 6 2 3 - - 0.0
24/01:10am 22.6 25.2 19.2 81 2.2 NW 4 4 2 2 - - 0.0
24/01:00am 23.0 25.2 19.2 79 2.4 ENE 6 7 3 4 - - 0.0
24/12:50am 23.0 24.9 18.9 78 2.6 ENE 7 7 4 4 - - 0.0
24/12:40am 22.7 24.8 19.0 79 2.4 ENE 6 6 3 3 - - 0.0
24/12:30am 22.9 24.8 19.0 78 2.5 E 7 7 4 4 - - 0.0
24/12:20am 22.8 24.7 19.0 79 2.4 E 7 7 4 4 - - 0.0
24/12:10am 22.5 24.4 19.0 80 2.2 ENE 7 7 4 4 - - 0.0
24/12:00am 23.2 25.3 19.3 79 2.5 E 7 7 4 4 - - 0.0
 
Date/Time
EDT
Temp
°C
App
Temp
°C
Dew
Point
°C
Rel
Hum
%
Delta-T
°C
Wind Press
QNH
hPa
Press
MSL
hPa
Rain since
9am
mm
Dir  Spd
km/h
Gust
km/h
Spd
kts
Gust
kts
23/11:50pm 23.0 25.0 19.2 79 2.4 E 7 7 4 4 - - 0.0
23/11:40pm 23.4 25.8 19.6 79 2.5 - 6 6 3 3 - - 0.0
23/11:30pm 23.9 26.1 19.3 75 3.0 E 6 7 3 4 - - 0.0
23/11:20pm 24.0 26.1 19.0 73 3.2 ESE 6 7 3 4 - - 0.0
23/11:10pm 23.9 26.2 19.4 76 2.9 E 6 6 3 3 - - 0.0
23/11:00pm 24.2 26.8 19.3 74 3.2 ESE 4 6 2 3 - - 0.0
23/10:50pm 24.4 26.9 19.1 72 3.4 ESE 4 6 2 3 - - 0.0
23/10:40pm 24.2 26.7 19.1 73 3.3 SE 4 6 2 3 - - 0.0
23/10:30pm 24.1 27.0 19.8 77 2.8 SE 4 4 2 2 - - 0.0
23/10:20pm 24.2 26.9 19.5 75 3.0 ESE 4 4 2 2 - - 0.0
23/10:10pm 24.2 26.9 19.4 74 3.1 SE 4 6 2 3 - - 0.0
23/10:00pm 24.3 27.3 20.1 77 2.7 ESE 4 4 2 2 - - 0.0
23/09:50pm 24.4 27.1 19.5 74 3.2 ESE 4 4 2 2 - - 0.0
23/09:40pm 24.7 27.7 20.0 75 3.1 ESE 4 4 2 2 - - 0.0
23/09:30pm 24.8 27.6 19.7 73 3.3 SE 4 6 2 3 - - 0.0
23/09:20pm 25.2 28.4 20.4 74 3.2 ESE 4 6 2 3 - - 0.0
23/09:10pm 25.5 29.0 20.3 73 3.4 NE 2 2 1 1 - - 0.0
23/09:00pm 26.0 29.2 19.7 68 4.1 N 2 4 1 2 - - 0.0
23/08:50pm 26.2 29.0 19.6 67 4.3 N 4 6 2 3 - - 0.0
23/08:40pm 26.3 28.5 19.6 66 4.4 ENE 7 13 4 7 - - 0.0
23/08:30pm 26.4 27.9 19.7 66 4.4 ENE 11 13 6 7 - - 0.0
23/08:20pm 26.6 28.6 19.9 66 4.4 ENE 9 13 5 7 - - 0.0

Other formats

Comma delimited format used in spreadsheet applications
http://www.bom.gov.au/fwo/IDN60801/IDN60801.99071.axf

JavaScript Object Notation format (JSON) in row-major order
http://www.bom.gov.au/fwo/IDN60801/IDN60801.99071.json

Data quality

Most of these data are generated automatically and are frequently updated. Quality checks on data are not normally performed. It is possible for incorrect values to appear. Refer to information at About Latest Weather Observations and please check the disclaimer before using these data.